Latest Coastal Weather Observations for Norah Head

IDN60701

Issued at 3:55 am EST Friday 22 August 2014 (issued every 10 minutes, with the page automatically refreshed every 10 minutes)

About coastal observations | Map of coastal stations | Coastal observations for NSW | Marine services | Other Formats
Station Details ID: 061366 Name: NORAH HEAD AWS Lat: -33.28 Lon: 151.58 Height: 18.8 m
Data from the previous 72 hours. | See also: Recent months at Norah Head
Date/Time
EST
Temp

°C
Wind Pressure Rain
since 9am
mm
Weather Cloud Vis
km
Sea
Height
m
Swell
Dir
 
Speed
knots
Gust
knots
hPa Trend Height
m
Period
s
Dir
22/03:30am 14.0 S 6 11 1028.3 - 14.6 - - - - - - -
22/03:00am 13.4 W 4 5 1028.6 - 14.6 Recent precip. - - - - - -
22/02:30am 14.0 S 10 15 1028.6 - 14.6 - - - - - - -
22/02:00am 14.5 S 14 18 1028.6 - 14.4 - - - - - - -
22/01:30am 14.6 S 11 15 1028.9 - 13.8 - - - - - - -
22/01:00am 14.5 S 8 11 1029.3 - 13.8 - - - - - - -
22/12:30am 14.4 SSE 7 10 1029.4 - 13.8 - - - - - - -
22/12:00am 14.4 E 7 10 1029.2 - 13.8 - - - - - - -
 
Date/Time
EST
Temp

°C
Wind Pressure Rain
since 9am
mm
Weather Cloud Vis
km
Sea
Height
m
Swell
Dir
 
Speed
knots
Gust
knots
hPa Trend Height
m
Period
s
Dir
21/11:30pm 13.9 E 11 15 1029.4 - 13.8 - - - - - - -
21/11:00pm 14.3 E 14 19 1029.4 - 13.8 - - - - - - -
21/10:30pm 13.8 E 14 19 1029.2 - 13.4 - - - - - - -
21/10:00pm 13.6 ENE 14 20 1029.3 - 12.6 - - - - - - -
21/09:58pm 13.5 ENE 15 20 1029.3 - 12.6 - - - - - - -
21/09:55pm 14.0 E 21 26 1029.3 - 10.0 - - - - - - -
21/09:30pm 14.3 SE 15 18 1029.1 - 9.8 - - - - - - -
21/09:00pm 13.8 SSE 17 20 1028.9 - 9.8 Recent precip. - - - - - -
21/08:30pm 13.9 SSE 11 13 1029.0 - 9.4 - - - - - - -
21/08:00pm 13.7 SE 11 15 1028.8 - 9.0 - - - - - - -
21/07:30pm 14.3 SSE 12 15 1028.6 - 8.2 - - - - - - -
21/07:00pm 13.9 S 10 14 1028.5 - 8.2 - - - - - - -
21/06:30pm 13.9 S 16 19 1028.2 - 8.2 - - - - - - -
21/06:00pm 13.8 S 13 17 1028.0 - 7.8 Rain - - - - - -
21/05:30pm 13.8 S 20 25 1027.7 - 5.8 - - - - - - -
21/05:22pm 14.0 S 15 23 1027.5 - 5.6 - - - - - - -
21/05:00pm 14.0 S 9 13 1027.5 - 4.4 - - - - - - -
21/04:30pm 14.3 S 18 21 1027.0 - 4.2 - - - - - - -
21/04:00pm 14.7 S 18 22 1026.6 - 4.2 - - - - - - -
21/03:30pm 14.1 S 17 21 1026.4 - 4.2 - - - - - - -
21/03:17pm 14.3 S 23 27 1026.2 - 4.2 - - - - - - -
21/03:06pm 14.7 SE 15 25 1026.1 - 4.2 - - - - - - -
21/03:00pm 14.5 SE 11 17 1026.2 - 4.2 Recent precip. - - - - - -
21/02:30pm 15.4 S 15 20 1026.2 - 0.0 - - - - - - -
21/02:00pm 16.3 S 20 24 1026.2 - 0.0 - - - - - - -
21/01:30pm 15.8 S 18 21 1026.4 - 0.0 - - - - - - -
21/01:00pm 15.9 S 15 21 1026.8 - 0.0 - - - - - - -
21/12:30pm 15.4 SSW 12 18 1027.2 - 0.0 - - - - - - -
21/12:00pm 15.9 S 13 18 1027.5 - 0.0 - - - - - - -
21/11:30am 15.1 S 13 17 1027.9 - 0.0 - - - - - - -
21/11:00am 15.1 S 14 19 1028.2 - 0.0 - - - - - - -
21/10:30am 15.0 SSW 9 14 1028.4 - 0.0 - - - - - - -
21/10:00am 14.2 SW 6 10 1028.5 - 0.0 - - - - - - -
21/09:30am 13.0 WSW 5 8 1028.5 - 0.0 - - - - - - -
21/09:00am 11.8 W 6 11 1028.4 - 2.6 Recent precip. - - - - - -
21/08:30am 11.2 W 7 10 1028.3 - 2.6 - - - - - - -
21/08:00am 11.6 WSW 7 11 1028.1 - 2.2 - - - - - - -
21/07:30am 11.0 W 6 8 1027.8 - 1.8 - - - - - - -
21/07:00am 11.0 WSW 7 11 1027.6 - 1.6 - - - - - - -
21/06:30am 11.4 SW 8 13 1027.3 - 1.0 - - - - - - -
21/06:00am 11.5 WSW 9 12 1026.9 - 1.0 - - - - - - -
21/05:30am 11.3 WSW 6 9 1026.6 - 1.0 - - - - - - -
21/05:00am 11.7 WSW 6 9 1026.5 - 1.0 - - - - - - -
21/04:30am 11.8 SW 8 11 1026.4 - 1.0 - - - - - - -
21/04:00am 11.7 SW 7 10 1026.3 - 1.0 - - - - - - -
21/03:30am 11.7 WSW 8 11 1026.1 - 1.0 - - - - - - -
21/03:00am 11.8 WSW 7 12 1026.0 - 1.0 - - - - - - -
21/02:30am 11.8 WSW 8 12 1026.1 - 1.0 - - - - - - -
21/02:00am 12.1 WSW 7 11 1026.2 - 1.0 - - - - - - -
21/01:30am 12.3 WSW 6 10 1026.3 - 1.0 - - - - - - -
21/01:00am 13.3 SW 4 7 1026.4 - 1.0 - - - - - - -
21/12:30am 14.7 S 15 18 1026.2 - 1.0 - - - - - - -
21/12:00am 14.8 S 18 21 1026.2 - 1.0 - - - - - - -
 
Date/Time
EST
Temp

°C
Wind Pressure Rain
since 9am
mm
Weather Cloud Vis
km
Sea
Height
m
Swell
Dir
 
Speed
knots
Gust
knots
hPa Trend Height
m
Period
s
Dir
20/11:30pm 14.5 S 17 20 1026.0 - 1.0 - - - - - - -
20/11:00pm 13.9 S 9 12 1026.4 - 1.0 - - - - - - -
20/10:58pm 14.1 S 8 11 1026.4 - 1.0 - - - - - - -
20/10:30pm 13.5 SSE 20 24 1026.1 - 1.0 - - - - - - -
20/10:00pm 14.7 S 16 18 1026.1 - 0.4 - - - - - - -
20/09:30pm 14.7 S 19 25 1026.3 - 0.4 - - - - - - -
20/09:00pm 14.7 S 22 26 1026.1 - 0.4 - - - - - - -
20/08:30pm 14.8 S 20 24 1026.1 - 0.4 - - - - - - -
20/08:00pm 15.0 S 21 25 1025.7 - 0.4 - - - - - - -
20/07:30pm 14.8 S 21 25 1025.6 - 0.4 - - - - - - -
20/07:00pm 14.5 S 21 27 1025.3 - 0.4 - - - - - - -
20/06:30pm 14.6 S 24 30 1025.0 - 0.4 - - - - - - -
20/06:00pm 14.9 S 20 26 1024.8 - 0.4 - - - - - - -
20/05:30pm 14.5 S 17 23 1024.6 - 0.4 - - - - - - -
20/05:00pm 14.1 S 19 23 1024.4 - 0.4 - - - - - - -
20/04:30pm 13.7 S 16 20 1024.3 - 0.4 - - - - - - -
20/04:00pm 13.8 S 19 25 1024.1 - 0.4 - - - - - - -
20/03:30pm 13.6 S 24 30 1024.0 - 0.4 - - - - - - -
20/03:00pm 14.1 SSW 18 25 1023.9 - 0.2 - - - - - - -
20/02:30pm 13.6 S 18 25 1023.8 - 0.2 - - - - - - -
20/02:06pm 14.2 S 16 26 1023.6 - 0.2 - - - - - - -
20/02:00pm 14.4 SSW 17 24 1023.6 - 0.2 - - - - - - -
20/01:30pm 13.7 S 20 28 1023.6 - 0.2 - - - - - - -
20/01:12pm 13.8 S 17 28 1023.7 - 0.2 - - - - - - -
20/01:00pm 13.5 SSW 16 26 1023.8 - 0.2 - - - - - - -
20/12:52pm 13.6 SSW 15 26 1023.8 - 0.2 - - - - - - -
20/12:30pm 13.7 SSW 10 15 1024.1 - 0.2 - - - - - - -
20/12:00pm 13.2 SSW 15 22 1024.5 - 0.2 - - - - - - -
20/11:54am 13.8 S 16 22 1024.4 - 0.2 - - - - - - -
20/11:30am 13.9 SW 6 10 1024.7 - 0.2 - - - - - - -
20/11:00am 12.5 SW 9 15 1024.9 - 0.2 - - - - - - -
20/10:30am 13.8 SSW 10 15 1024.8 - 0.0 - - - - - - -
20/10:00am 13.7 SSW 13 19 1024.5 - 0.0 - - - - - - -
20/09:30am 13.6 SSW 13 19 1024.1 - 0.0 - - - - - - -
20/09:00am 13.5 SSW 14 20 1023.9 - 15.2 - - - - - - -
20/08:30am 12.8 SW 9 14 1023.7 - 15.2 - - - - - - -
20/08:00am 12.4 SW 9 16 1023.6 - 15.2 - - - - - - -
20/07:30am 12.5 SW 8 14 1023.3 - 15.2 - - - - - - -
20/07:00am 11.8 SW 8 13 1022.8 - 15.2 - - - - - - -
20/06:30am 11.5 SW 8 14 1022.5 - 15.2 - - - - - - -
20/06:00am 11.2 SW 8 14 1022.2 - 15.2 - - - - - - -
20/05:30am 11.3 SW 8 13 1021.7 - 15.2 - - - - - - -
20/05:00am 11.3 SW 8 14 1021.6 - 15.2 - - - - - - -
20/04:30am 11.1 WSW 9 13 1021.3 - 15.2 - - - - - - -
20/04:00am 11.1 SW 8 13 1021.1 - 15.2 - - - - - - -
20/03:30am 11.4 SW 9 14 1020.8 - 15.2 - - - - - - -
20/03:00am 11.8 SW 11 19 1020.6 - 15.2 - - - - - - -
20/02:30am 12.0 SW 8 14 1020.5 - 15.2 - - - - - - -
20/02:00am 12.3 SW 9 15 1020.4 - 15.2 - - - - - - -
20/01:30am 12.5 SW 9 15 1020.4 - 15.2 - - - - - - -
20/01:00am 12.6 SW 9 16 1020.4 - 15.2 - - - - - - -
20/12:30am 12.7 SW 10 18 1020.3 - 15.2 - - - - - - -
20/12:00am 12.4 SW 9 17 1020.3 - 15.2 - - - - - - -
 
Date/Time
EST
Temp

°C
Wind Pressure Rain
since 9am
mm
Weather Cloud Vis
km
Sea
Height
m
Swell
Dir
 
Speed
knots
Gust
knots
hPa Trend Height
m
Period
s
Dir
19/11:30pm 12.4 SW 9 14 1020.3 - 15.2 - - - - - - -
19/11:00pm 12.5 SW 9 15 1020.4 - 15.2 - - - - - - -
19/10:30pm 12.8 SW 11 16 1020.2 - 15.2 - - - - - - -
19/10:00pm 12.9 SW 14 29 1020.2 - 15.2 - - - - - - -
19/09:43pm 14.3 SSW 15 27 1019.8 - 14.8 - - - - - - -
19/09:30pm 13.8 SSW 15 24 1019.9 - 14.8 - - - - - - -
19/09:00pm 13.4 SW 12 18 1019.6 - 14.8 - - - - - - -
19/08:30pm 13.2 SW 10 16 1019.7 - 14.8 - - - - - - -
19/08:00pm 13.6 SSW 15 23 1019.6 - 14.8 - - - - - - -
19/07:30pm 13.4 SW 15 23 1019.0 - 14.8 - - - - - - -
19/07:10pm 13.5 SSW 17 27 1018.8 - 14.8 - - - - - - -
19/07:00pm 13.4 SSW 16 24 1018.6 - 14.8 - - - - - - -
19/06:30pm 13.6 SSW 17 27 1018.3 - 13.8 - - - - - - -
19/06:08pm 13.6 SSW 16 27 1018.0 - 13.8 - - - - - - -
19/06:00pm 13.5 SSW 17 24 1017.9 - 13.6 Recent precip. - - - - - -
19/05:44pm 13.7 SSW 15 24 1017.8 - 13.0 - - - - - - -
19/05:30pm 13.9 SSW 10 13 1017.5 - 11.4 - - - - - - -
19/05:00pm 14.3 SW 14 22 1016.8 - 9.6 - - - - - - -
19/04:41pm 14.3 SSW 15 28 1016.5 - 9.6 - - - - - - -
19/04:30pm 14.5 SSW 14 20 1016.4 - 9.6 - - - - - - -
19/04:01pm 15.3 S 25 36 1015.8 - 9.6 - - - - - - -
19/04:00pm 15.4 S 27 36 1015.6 - 9.6 - - - - - - -
19/03:58pm 15.2 S 30 36 1015.4 - 9.6 - - - - - - -
19/03:33pm 14.9 SSW 18 28 1015.5 - 9.6 - - - - - - -
19/03:30pm 14.7 SSW 18 25 1015.5 - 9.6 - - - - - - -
19/03:07pm 14.6 S 19 36 1015.4 - 9.2 - - - - - - -
19/03:00pm 14.4 SSW 19 27 1015.3 - 8.6 Rain - - - - - -
19/02:30pm 15.1 SSW 23 34 1014.8 - 4.8 - - - - - - -
19/02:08pm 15.3 S 20 30 1014.7 - 4.8 - - - - - - -
19/02:00pm 14.7 SSW 22 30 1014.5 - 4.8 - - - - - - -
19/01:30pm 14.3 S 23 38 1014.3 - 4.2 - - - - - - -
19/01:00pm 15.6 S 27 37 1013.6 - 2.2 - - - - - - -
19/12:41pm 15.3 SSW 15 30 1014.1 - 2.2 - - - - - - -
19/12:30pm 14.7 SSW 18 25 1014.4 - 2.2 - - - - - - -
19/12:00pm 14.8 SSW 15 31 1014.3 - 2.0 Rain - - - - - -
19/11:30am 14.5 SSW 18 29 1014.8 - 1.8 - - - - - - -
19/11:04am 15.9 S 25 35 1014.3 - 1.0 - - - - - - -
19/11:00am 16.1 S 25 33 1014.2 - 1.0 - - - - - - -
19/10:30am 14.8 S 28 44 1014.3 - 1.0 - - - - - - -
19/10:00am 14.9 S 24 37 1014.0 - 0.2 - - - - - - -
19/09:41am 15.8 S 22 34 1013.9 - 0.2 - - - - - - -
19/09:30am 16.1 S 23 30 1014.0 - 0.0 - - - - - - -
19/09:00am 16.2 S 28 35 1013.4 - 31.0 - - - - - - -
19/08:40am 16.3 S 27 38 1013.3 - 31.0 - - - - - - -
19/08:30am 15.9 S 30 38 1013.2 - 31.0 - - - - - - -
19/08:16am 15.3 S 27 38 1012.9 - 31.0 - - - - - - -
19/08:00am 14.9 S 27 36 1013.0 - 31.0 - - - - - - -
19/07:30am 15.5 S 29 37 1012.4 - 31.0 - - - - - - -
19/07:00am 14.8 S 31 39 1011.7 - 31.0 - - - - - - -
19/06:33am 14.8 S 29 40 1011.1 - 31.0 - - - - - - -
19/06:30am 14.7 S 28 36 1011.4 - 30.8 - - - - - - -
19/06:01am 14.8 S 23 34 1010.9 - 30.4 - - - - - - -
19/06:00am 14.9 S 23 30 1010.9 - 30.4 Recent precip. - - - - - -
19/05:30am 14.7 S 29 41 1010.3 - 29.4 - - - - - - -
19/05:24am 14.1 S 27 37 1010.6 - 29.2 - - - - - - -
19/05:00am 14.2 S 28 36 1010.1 - 28.8 - - - - - - -
19/04:52am 14.2 S 31 36 1010.1 - 28.2 - - - - - - -
19/04:48am 14.6 S 20 31 1010.2 - 26.6 - - - - - - -
19/04:30am 14.6 S 24 32 1009.8 - 26.0 - - - - - - -
19/04:03am 14.4 SSW 21 32 1009.9 - 25.4 - - - - - - -
19/04:00am 14.8 S 22 32 1009.6 - 25.0 - - - - - - -

Other Formats:

Comma delimited format used in spreadsheet applications
http://www.bom.gov.au/fwo/IDN60701/IDN60701.95770.axf

JavaScript Object Notation format (JSON) in row-major order
http://www.bom.gov.au/fwo/IDN60701/IDN60701.95770.json